sensor_id;sensor_type;location;lat;lon;timestamp;temperature;humidity
8408;DHT22;4241;48.452;9.216;2023-08-24T00:01:59;20.80;99.90
8408;DHT22;4241;48.452;9.216;2023-08-24T00:04:27;20.60;99.90
8408;DHT22;4241;48.452;9.216;2023-08-24T00:06:54;20.50;99.90
8408;DHT22;4241;48.452;9.216;2023-08-24T00:09:21;20.30;99.90
8408;DHT22;4241;48.452;9.216;2023-08-24T00:11:47;20.30;99.90
8408;DHT22;4241;48.452;9.216;2023-08-24T00:14:15;20.30;99.90
8408;DHT22;4241;48.452;9.216;2023-08-24T00:16:42;20.40;99.90
8408;DHT22;4241;48.452;9.216;2023-08-24T00:19:10;20.40;99.90
8408;DHT22;4241;48.452;9.216;2023-08-24T00:21:37;20.30;99.90
8408;DHT22;4241;48.452;9.216;2023-08-24T00:24:04;20.30;99.90
8408;DHT22;4241;48.452;9.216;2023-08-24T00:26:31;20.40;99.90
8408;DHT22;4241;48.452;9.216;2023-08-24T00:28:58;20.20;99.90
8408;DHT22;4241;48.452;9.216;2023-08-24T00:31:25;20.20;99.90
8408;DHT22;4241;48.452;9.216;2023-08-24T00:33:52;20.20;99.90
8408;DHT22;4241;48.452;9.216;2023-08-24T00:36:20;20.30;99.90
8408;DHT22;4241;48.452;9.216;2023-08-24T00:38:48;20.30;99.90
8408;DHT22;4241;48.452;9.216;2023-08-24T00:41:17;20.30;99.90
8408;DHT22;4241;48.452;9.216;2023-08-24T00:43:44;20.10;99.90
8408;DHT22;4241;48.452;9.216;2023-08-24T00:46:12;20.10;99.90
8408;DHT22;4241;48.452;9.216;2023-08-24T00:48:39;20.10;99.90
8408;DHT22;4241;48.452;9.216;2023-08-24T00:51:06;20.10;99.90
8408;DHT22;4241;48.452;9.216;2023-08-24T00:53:37;20.10;99.90
8408;DHT22;4241;48.452;9.216;2023-08-24T00:56:04;20.10;99.90
8408;DHT22;4241;48.452;9.216;2023-08-24T00:58:32;20.10;99.90
8408;DHT22;4241;48.452;9.216;2023-08-24T01:00:59;20.10;99.90
8408;DHT22;4241;48.452;9.216;2023-08-24T01:03:26;19.90;99.90
8408;DHT22;4241;48.452;9.216;2023-08-24T01:05:53;19.90;99.90
8408;DHT22;4241;48.452;9.216;2023-08-24T01:08:21;20.00;99.90
8408;DHT22;4241;48.452;9.216;2023-08-24T01:10:57;19.90;99.90
8408;DHT22;4241;48.452;9.216;2023-08-24T01:13:30;19.80;99.90
8408;DHT22;4241;48.452;9.216;2023-08-24T01:16:03;19.80;99.90
8408;DHT22;4241;48.452;9.216;2023-08-24T01:18:31;19.90;99.90
8408;DHT22;4241;48.452;9.216;2023-08-24T01:21:02;19.90;99.90
8408;DHT22;4241;48.452;9.216;2023-08-24T01:23:36;19.80;99.90
8408;DHT22;4241;48.452;9.216;2023-08-24T01:26:11;19.90;99.90
8408;DHT22;4241;48.452;9.216;2023-08-24T01:28:38;20.00;99.90
8408;DHT22;4241;48.452;9.216;2023-08-24T01:31:05;19.90;99.90
8408;DHT22;4241;48.452;9.216;2023-08-24T01:33:33;19.80;99.90
8408;DHT22;4241;48.452;9.216;2023-08-24T01:38:27;19.90;99.90
8408;DHT22;4241;48.452;9.216;2023-08-24T01:41:01;19.80;99.90
8408;DHT22;4241;48.452;9.216;2023-08-24T01:43:36;19.80;99.90
8408;DHT22;4241;48.452;9.216;2023-08-24T01:46:04;19.80;99.90
8408;DHT22;4241;48.452;9.216;2023-08-24T01:48:32;19.70;99.90
8408;DHT22;4241;48.452;9.216;2023-08-24T01:50:59;19.70;99.90
8408;DHT22;4241;48.452;9.216;2023-08-24T01:53:30;19.80;99.90
8408;DHT22;4241;48.452;9.216;2023-08-24T01:55:57;19.50;99.90
8408;DHT22;4241;48.452;9.216;2023-08-24T01:58:24;19.50;99.90
8408;DHT22;4241;48.452;9.216;2023-08-24T02:00:52;19.50;99.90
8408;DHT22;4241;48.452;9.216;2023-08-24T02:05:46;19.60;99.90
8408;DHT22;4241;48.452;9.216;2023-08-24T02:10:39;19.50;99.90
8408;DHT22;4241;48.452;9.216;2023-08-24T02:13:06;19.60;99.90
8408;DHT22;4241;48.452;9.216;2023-08-24T02:18:02;19.40;99.90
8408;DHT22;4241;48.452;9.216;2023-08-24T02:20:28;19.60;99.90
8408;DHT22;4241;48.452;9.216;2023-08-24T02:27:49;19.70;99.90
8408;DHT22;4241;48.452;9.216;2023-08-24T02:32:44;19.50;99.90
8408;DHT22;4241;48.452;9.216;2023-08-24T02:35:12;19.50;99.90
8408;DHT22;4241;48.452;9.216;2023-08-24T02:37:39;19.60;99.90
8408;DHT22;4241;48.452;9.216;2023-08-24T02:40:07;19.50;99.90
8408;DHT22;4241;48.452;9.216;2023-08-24T02:42:34;19.60;99.90
8408;DHT22;4241;48.452;9.216;2023-08-24T02:45:03;19.30;99.90
8408;DHT22;4241;48.452;9.216;2023-08-24T02:47:30;19.40;99.90
8408;DHT22;4241;48.452;9.216;2023-08-24T02:52:27;19.40;99.90
8408;DHT22;4241;48.452;9.216;2023-08-24T02:54:53;19.40;99.90
8408;DHT22;4241;48.452;9.216;2023-08-24T02:57:20;19.40;99.90
8408;DHT22;4241;48.452;9.216;2023-08-24T02:59:47;19.50;99.90
8408;DHT22;4241;48.452;9.216;2023-08-24T03:04:41;19.50;99.90
8408;DHT22;4241;48.452;9.216;2023-08-24T03:07:08;19.40;99.90
8408;DHT22;4241;48.452;9.216;2023-08-24T03:09:37;19.50;99.90
8408;DHT22;4241;48.452;9.216;2023-08-24T03:12:04;19.50;99.90
8408;DHT22;4241;48.452;9.216;2023-08-24T03:19:25;19.50;99.90
8408;DHT22;4241;48.452;9.216;2023-08-24T03:26:48;19.60;99.90
8408;DHT22;4241;48.452;9.216;2023-08-24T03:29:15;19.50;99.90
8408;DHT22;4241;48.452;9.216;2023-08-24T03:31:42;19.40;99.90
8408;DHT22;4241;48.452;9.216;2023-08-24T03:34:09;19.50;99.90
8408;DHT22;4241;48.452;9.216;2023-08-24T03:39:03;19.50;99.90
8408;DHT22;4241;48.452;9.216;2023-08-24T03:44:00;19.40;99.90
8408;DHT22;4241;48.452;9.216;2023-08-24T03:46:28;19.50;99.90
8408;DHT22;4241;48.452;9.216;2023-08-24T03:48:54;19.40;99.90
8408;DHT22;4241;48.452;9.216;2023-08-24T03:53:48;19.40;99.90
8408;DHT22;4241;48.452;9.216;2023-08-24T03:58:42;19.30;99.90
8408;DHT22;4241;48.452;9.216;2023-08-24T04:01:11;19.20;99.90
8408;DHT22;4241;48.452;9.216;2023-08-24T04:03:38;19.10;99.90
8408;DHT22;4241;48.452;9.216;2023-08-24T04:11:00;19.10;99.90
8408;DHT22;4241;48.452;9.216;2023-08-24T04:13:27;19.00;99.90
8408;DHT22;4241;48.452;9.216;2023-08-24T04:18:22;19.00;99.90
8408;DHT22;4241;48.452;9.216;2023-08-24T04:20:51;19.10;99.90
8408;DHT22;4241;48.452;9.216;2023-08-24T04:23:24;19.10;99.90
8408;DHT22;4241;48.452;9.216;2023-08-24T04:25:51;19.10;99.90
8408;DHT22;4241;48.452;9.216;2023-08-24T04:28:18;19.00;99.90
8408;DHT22;4241;48.452;9.216;2023-08-24T04:30:49;19.10;99.90
8408;DHT22;4241;48.452;9.216;2023-08-24T04:33:16;19.00;99.90
8408;DHT22;4241;48.452;9.216;2023-08-24T04:35:46;19.00;99.90
8408;DHT22;4241;48.452;9.216;2023-08-24T04:38:13;19.00;99.90
8408;DHT22;4241;48.452;9.216;2023-08-24T04:40:48;19.00;99.90
8408;DHT22;4241;48.452;9.216;2023-08-24T04:43:15;18.90;99.90
8408;DHT22;4241;48.452;9.216;2023-08-24T04:48:09;19.00;99.90
8408;DHT22;4241;48.452;9.216;2023-08-24T04:50:36;18.90;99.90
8408;DHT22;4241;48.452;9.216;2023-08-24T04:53:04;18.80;99.90
8408;DHT22;4241;48.452;9.216;2023-08-24T04:55:31;18.80;99.90
8408;DHT22;4241;48.452;9.216;2023-08-24T04:57:58;18.90;99.90
8408;DHT22;4241;48.452;9.216;2023-08-24T05:00:25;18.80;99.90
8408;DHT22;4241;48.452;9.216;2023-08-24T05:07:46;18.80;99.90
8408;DHT22;4241;48.452;9.216;2023-08-24T05:10:14;18.80;99.90
8408;DHT22;4241;48.452;9.216;2023-08-24T05:15:08;18.80;99.90
8408;DHT22;4241;48.452;9.216;2023-08-24T05:17:35;18.90;99.90
8408;DHT22;4241;48.452;9.216;2023-08-24T05:20:02;19.10;99.90
8408;DHT22;4241;48.452;9.216;2023-08-24T05:24:56;19.60;99.90
8408;DHT22;4241;48.452;9.216;2023-08-24T05:27:25;19.90;99.90
8408;DHT22;4241;48.452;9.216;2023-08-24T05:29:51;20.00;99.90
8408;DHT22;4241;48.452;9.216;2023-08-24T05:32:18;20.40;99.90
8408;DHT22;4241;48.452;9.216;2023-08-24T05:34:45;20.20;99.90
8408;DHT22;4241;48.452;9.216;2023-08-24T05:37:12;20.30;99.90
8408;DHT22;4241;48.452;9.216;2023-08-24T05:39:39;20.50;99.90
8408;DHT22;4241;48.452;9.216;2023-08-24T05:42:06;20.50;99.90
8408;DHT22;4241;48.452;9.216;2023-08-24T05:44:34;20.60;99.90
8408;DHT22;4241;48.452;9.216;2023-08-24T05:47:01;20.60;99.90
8408;DHT22;4241;48.452;9.216;2023-08-24T05:49:28;20.60;99.90
8408;DHT22;4241;48.452;9.216;2023-08-24T05:51:54;20.70;99.90
8408;DHT22;4241;48.452;9.216;2023-08-24T05:54:21;20.70;99.90
8408;DHT22;4241;48.452;9.216;2023-08-24T05:56:48;20.90;99.90
8408;DHT22;4241;48.452;9.216;2023-08-24T05:59:15;20.90;99.90
8408;DHT22;4241;48.452;9.216;2023-08-24T06:01:43;20.90;99.90
8408;DHT22;4241;48.452;9.216;2023-08-24T06:04:10;20.90;99.90
8408;DHT22;4241;48.452;9.216;2023-08-24T06:06:37;21.00;99.90
8408;DHT22;4241;48.452;9.216;2023-08-24T06:09:04;21.10;99.90
8408;DHT22;4241;48.452;9.216;2023-08-24T06:11:32;21.20;99.90
8408;DHT22;4241;48.452;9.216;2023-08-24T06:13:59;21.30;99.90
8408;DHT22;4241;48.452;9.216;2023-08-24T06:16:26;21.30;99.90
8408;DHT22;4241;48.452;9.216;2023-08-24T06:18:54;21.30;99.90
8408;DHT22;4241;48.452;9.216;2023-08-24T06:21:21;21.50;99.90
8408;DHT22;4241;48.452;9.216;2023-08-24T06:23:48;21.40;99.90
8408;DHT22;4241;48.452;9.216;2023-08-24T06:26:15;21.40;99.90
8408;DHT22;4241;48.452;9.216;2023-08-24T06:28:42;21.50;99.90
8408;DHT22;4241;48.452;9.216;2023-08-24T06:31:08;21.50;99.90
8408;DHT22;4241;48.452;9.216;2023-08-24T06:33:36;21.70;99.90
8408;DHT22;4241;48.452;9.216;2023-08-24T06:36:05;21.70;99.90
8408;DHT22;4241;48.452;9.216;2023-08-24T06:38:33;21.70;99.90
8408;DHT22;4241;48.452;9.216;2023-08-24T06:41:00;21.80;99.90
8408;DHT22;4241;48.452;9.216;2023-08-24T06:43:27;22.00;99.90
8408;DHT22;4241;48.452;9.216;2023-08-24T06:45:54;21.90;99.90
8408;DHT22;4241;48.452;9.216;2023-08-24T06:48:21;21.70;99.90
8408;DHT22;4241;48.452;9.216;2023-08-24T06:50:48;21.70;99.90
8408;DHT22;4241;48.452;9.216;2023-08-24T06:53:16;21.80;99.90
8408;DHT22;4241;48.452;9.216;2023-08-24T06:55:43;21.80;99.90
8408;DHT22;4241;48.452;9.216;2023-08-24T07:00:37;21.80;99.90
8408;DHT22;4241;48.452;9.216;2023-08-24T07:03:05;21.90;99.90
8408;DHT22;4241;48.452;9.216;2023-08-24T07:05:32;21.80;99.90
8408;DHT22;4241;48.452;9.216;2023-08-24T07:10:29;21.80;99.90
8408;DHT22;4241;48.452;9.216;2023-08-24T07:12:56;22.10;99.90
8408;DHT22;4241;48.452;9.216;2023-08-24T07:15:23;22.00;99.90
8408;DHT22;4241;48.452;9.216;2023-08-24T07:17:50;22.10;99.90
8408;DHT22;4241;48.452;9.216;2023-08-24T07:20:17;22.10;99.90
8408;DHT22;4241;48.452;9.216;2023-08-24T07:22:45;22.20;99.90
8408;DHT22;4241;48.452;9.216;2023-08-24T07:25:12;22.10;99.90
8408;DHT22;4241;48.452;9.216;2023-08-24T07:27:41;22.10;99.90
8408;DHT22;4241;48.452;9.216;2023-08-24T07:30:09;22.20;99.90
8408;DHT22;4241;48.452;9.216;2023-08-24T07:32:36;22.20;99.90
8408;DHT22;4241;48.452;9.216;2023-08-24T07:35:04;22.10;99.90
8408;DHT22;4241;48.452;9.216;2023-08-24T07:37:31;22.30;99.90
8408;DHT22;4241;48.452;9.216;2023-08-24T07:39:58;22.30;99.90
8408;DHT22;4241;48.452;9.216;2023-08-24T07:42:25;22.30;99.90
8408;DHT22;4241;48.452;9.216;2023-08-24T07:44:54;22.40;99.90
8408;DHT22;4241;48.452;9.216;2023-08-24T07:47:20;22.40;99.90
8408;DHT22;4241;48.452;9.216;2023-08-24T07:49:47;22.70;99.90
8408;DHT22;4241;48.452;9.216;2023-08-24T07:52:14;22.80;99.90
8408;DHT22;4241;48.452;9.216;2023-08-24T07:54:41;22.70;99.90
8408;DHT22;4241;48.452;9.216;2023-08-24T07:57:09;22.70;99.90
8408;DHT22;4241;48.452;9.216;2023-08-24T07:59:36;22.60;99.90
8408;DHT22;4241;48.452;9.216;2023-08-24T08:02:04;22.50;99.90
8408;DHT22;4241;48.452;9.216;2023-08-24T08:04:31;22.70;99.90
8408;DHT22;4241;48.452;9.216;2023-08-24T08:06:58;22.70;99.90
8408;DHT22;4241;48.452;9.216;2023-08-24T08:09:24;22.70;99.90
8408;DHT22;4241;48.452;9.216;2023-08-24T08:11:51;23.00;99.90
8408;DHT22;4241;48.452;9.216;2023-08-24T08:14:19;23.20;99.90
8408;DHT22;4241;48.452;9.216;2023-08-24T08:16:46;23.50;99.90
8408;DHT22;4241;48.452;9.216;2023-08-24T08:19:15;23.60;99.90
8408;DHT22;4241;48.452;9.216;2023-08-24T08:21:43;23.90;99.90
8408;DHT22;4241;48.452;9.216;2023-08-24T08:24:10;24.00;99.90
8408;DHT22;4241;48.452;9.216;2023-08-24T08:26:37;24.10;99.90
8408;DHT22;4241;48.452;9.216;2023-08-24T08:29:04;24.20;99.90
8408;DHT22;4241;48.452;9.216;2023-08-24T08:31:32;24.30;99.90
8408;DHT22;4241;48.452;9.216;2023-08-24T08:33:58;24.50;99.90
8408;DHT22;4241;48.452;9.216;2023-08-24T08:36:27;24.70;99.90
8408;DHT22;4241;48.452;9.216;2023-08-24T08:38:53;24.90;99.90
8408;DHT22;4241;48.452;9.216;2023-08-24T08:41:22;25.20;99.90
8408;DHT22;4241;48.452;9.216;2023-08-24T08:43:49;25.50;99.90
8408;DHT22;4241;48.452;9.216;2023-08-24T08:46:16;25.70;99.90
8408;DHT22;4241;48.452;9.216;2023-08-24T08:48:45;26.00;99.90
8408;DHT22;4241;48.452;9.216;2023-08-24T08:51:14;26.30;99.90
8408;DHT22;4241;48.452;9.216;2023-08-24T08:53:44;26.30;99.90
8408;DHT22;4241;48.452;9.216;2023-08-24T08:56:11;26.60;99.90
8408;DHT22;4241;48.452;9.216;2023-08-24T08:58:39;26.50;99.90
8408;DHT22;4241;48.452;9.216;2023-08-24T09:01:09;26.60;99.90
8408;DHT22;4241;48.452;9.216;2023-08-24T09:03:36;26.80;99.90
8408;DHT22;4241;48.452;9.216;2023-08-24T09:06:03;26.90;99.90
8408;DHT22;4241;48.452;9.216;2023-08-24T09:08:30;27.00;99.90
8408;DHT22;4241;48.452;9.216;2023-08-24T09:10:59;27.30;99.90
8408;DHT22;4241;48.452;9.216;2023-08-24T09:13:26;27.50;99.90
8408;DHT22;4241;48.452;9.216;2023-08-24T09:15:53;27.60;99.90
8408;DHT22;4241;48.452;9.216;2023-08-24T09:18:20;27.70;99.90
8408;DHT22;4241;48.452;9.216;2023-08-24T09:20:47;27.80;99.90
8408;DHT22;4241;48.452;9.216;2023-08-24T09:23:18;27.90;99.90
8408;DHT22;4241;48.452;9.216;2023-08-24T09:25:46;28.10;99.90
8408;DHT22;4241;48.452;9.216;2023-08-24T09:28:22;28.10;99.90
8408;DHT22;4241;48.452;9.216;2023-08-24T09:30:53;28.20;99.90
8408;DHT22;4241;48.452;9.216;2023-08-24T09:33:21;28.30;99.90
8408;DHT22;4241;48.452;9.216;2023-08-24T09:35:52;28.50;99.90
8408;DHT22;4241;48.452;9.216;2023-08-24T09:38:21;28.50;99.90
8408;DHT22;4241;48.452;9.216;2023-08-24T09:40:51;28.70;99.90
8408;DHT22;4241;48.452;9.216;2023-08-24T09:43:19;28.70;99.90
8408;DHT22;4241;48.452;9.216;2023-08-24T09:45:50;28.80;99.90
8408;DHT22;4241;48.452;9.216;2023-08-24T09:48:17;28.90;99.90
8408;DHT22;4241;48.452;9.216;2023-08-24T09:50:45;29.00;99.90
8408;DHT22;4241;48.452;9.216;2023-08-24T09:53:16;29.10;99.90
8408;DHT22;4241;48.452;9.216;2023-08-24T09:55:49;29.20;99.90
8408;DHT22;4241;48.452;9.216;2023-08-24T09:58:21;29.30;99.90
8408;DHT22;4241;48.452;9.216;2023-08-24T10:00:49;29.30;99.90
8408;DHT22;4241;48.452;9.216;2023-08-24T10:03:19;29.40;99.90
8408;DHT22;4241;48.452;9.216;2023-08-24T10:05:50;29.50;99.90
8408;DHT22;4241;48.452;9.216;2023-08-24T10:08:21;29.70;99.90
8408;DHT22;4241;48.452;9.216;2023-08-24T10:10:50;30.00;99.90
8408;DHT22;4241;48.452;9.216;2023-08-24T10:13:23;30.20;99.90
8408;DHT22;4241;48.452;9.216;2023-08-24T10:15:53;30.30;99.90
8408;DHT22;4241;48.452;9.216;2023-08-24T10:18:21;30.50;99.90
8408;DHT22;4241;48.452;9.216;2023-08-24T10:20:50;30.40;99.90
8408;DHT22;4241;48.452;9.216;2023-08-24T10:23:19;30.30;99.90
8408;DHT22;4241;48.452;9.216;2023-08-24T10:25:46;30.30;99.90
8408;DHT22;4241;48.452;9.216;2023-08-24T10:28:14;30.50;99.90
8408;DHT22;4241;48.452;9.216;2023-08-24T10:30:44;30.60;99.90
8408;DHT22;4241;48.452;9.216;2023-08-24T10:33:12;30.70;99.90
8408;DHT22;4241;48.452;9.216;2023-08-24T10:35:40;30.80;99.90
8408;DHT22;4241;48.452;9.216;2023-08-24T10:38:10;30.90;99.90
8408;DHT22;4241;48.452;9.216;2023-08-24T10:40:51;31.00;99.90
8408;DHT22;4241;48.452;9.216;2023-08-24T10:43:18;31.20;99.90
8408;DHT22;4241;48.452;9.216;2023-08-24T10:45:59;31.30;99.90
8408;DHT22;4241;48.452;9.216;2023-08-24T10:48:28;31.50;99.90
8408;DHT22;4241;48.452;9.216;2023-08-24T10:51:17;31.50;99.90
8408;DHT22;4241;48.452;9.216;2023-08-24T10:53:47;31.50;99.90
8408;DHT22;4241;48.452;9.216;2023-08-24T10:56:16;31.50;99.90
8408;DHT22;4241;48.452;9.216;2023-08-24T10:58:44;31.60;99.90
8408;DHT22;4241;48.452;9.216;2023-08-24T11:01:16;31.70;99.90
8408;DHT22;4241;48.452;9.216;2023-08-24T11:03:49;31.70;99.90
8408;DHT22;4241;48.452;9.216;2023-08-24T11:06:21;31.70;99.90
8408;DHT22;4241;48.452;9.216;2023-08-24T11:08:49;31.80;99.90
8408;DHT22;4241;48.452;9.216;2023-08-24T11:11:20;31.70;99.90
8408;DHT22;4241;48.452;9.216;2023-08-24T11:14:15;31.80;99.90
8408;DHT22;4241;48.452;9.216;2023-08-24T11:16:45;31.80;99.90
8408;DHT22;4241;48.452;9.216;2023-08-24T11:19:12;31.70;99.90
8408;DHT22;4241;48.452;9.216;2023-08-24T11:21:40;31.80;99.90
8408;DHT22;4241;48.452;9.216;2023-08-24T11:24:09;31.60;99.90
8408;DHT22;4241;48.452;9.216;2023-08-24T11:26:39;31.60;99.90
8408;DHT22;4241;48.452;9.216;2023-08-24T11:29:07;31.70;99.90
8408;DHT22;4241;48.452;9.216;2023-08-24T11:31:34;32.00;99.90
8408;DHT22;4241;48.452;9.216;2023-08-24T11:34:03;32.10;99.90
8408;DHT22;4241;48.452;9.216;2023-08-24T11:36:30;32.30;99.90
8408;DHT22;4241;48.452;9.216;2023-08-24T11:38:58;32.60;99.90
8408;DHT22;4241;48.452;9.216;2023-08-24T11:41:25;32.90;99.90
8408;DHT22;4241;48.452;9.216;2023-08-24T11:43:59;33.10;99.90
8408;DHT22;4241;48.452;9.216;2023-08-24T11:46:28;33.20;99.90
8408;DHT22;4241;48.452;9.216;2023-08-24T11:48:57;33.40;99.90
8408;DHT22;4241;48.452;9.216;2023-08-24T11:51:25;33.60;99.90
8408;DHT22;4241;48.452;9.216;2023-08-24T11:53:52;33.70;99.40
8408;DHT22;4241;48.452;9.216;2023-08-24T11:56:19;33.90;97.60
8408;DHT22;4241;48.452;9.216;2023-08-24T11:58:48;33.90;94.30
8408;DHT22;4241;48.452;9.216;2023-08-24T12:01:16;34.20;94.30
8408;DHT22;4241;48.452;9.216;2023-08-24T12:03:43;34.40;91.10
8408;DHT22;4241;48.452;9.216;2023-08-24T12:06:11;34.50;92.20
8408;DHT22;4241;48.452;9.216;2023-08-24T12:08:39;34.70;88.70
8408;DHT22;4241;48.452;9.216;2023-08-24T12:11:12;34.60;85.20
8408;DHT22;4241;48.452;9.216;2023-08-24T12:13:43;34.80;85.10
8408;DHT22;4241;48.452;9.216;2023-08-24T12:16:11;34.90;90.10
8408;DHT22;4241;48.452;9.216;2023-08-24T12:18:46;35.10;92.70
8408;DHT22;4241;48.452;9.216;2023-08-24T12:21:14;35.20;90.50
8408;DHT22;4241;48.452;9.216;2023-08-24T12:23:42;35.20;88.20
8408;DHT22;4241;48.452;9.216;2023-08-24T12:26:17;35.30;86.30
8408;DHT22;4241;48.452;9.216;2023-08-24T12:28:49;35.30;81.80
8408;DHT22;4241;48.452;9.216;2023-08-24T12:31:16;35.40;84.70
8408;DHT22;4241;48.452;9.216;2023-08-24T12:33:43;35.30;86.30
8408;DHT22;4241;48.452;9.216;2023-08-24T12:36:11;35.40;86.60
8408;DHT22;4241;48.452;9.216;2023-08-24T12:38:37;35.30;86.80
8408;DHT22;4241;48.452;9.216;2023-08-24T12:41:08;35.40;78.50
8408;DHT22;4241;48.452;9.216;2023-08-24T12:43:35;35.30;83.30
8408;DHT22;4241;48.452;9.216;2023-08-24T12:46:02;35.40;80.90
8408;DHT22;4241;48.452;9.216;2023-08-24T12:48:29;35.40;78.60
8408;DHT22;4241;48.452;9.216;2023-08-24T12:50:56;35.40;76.70
8408;DHT22;4241;48.452;9.216;2023-08-24T12:53:23;35.20;77.20
8408;DHT22;4241;48.452;9.216;2023-08-24T12:55:49;35.40;76.40
8408;DHT22;4241;48.452;9.216;2023-08-24T12:58:18;35.50;82.30
8408;DHT22;4241;48.452;9.216;2023-08-24T13:00:45;35.50;83.40
8408;DHT22;4241;48.452;9.216;2023-08-24T13:03:12;35.60;81.30
8408;DHT22;4241;48.452;9.216;2023-08-24T13:05:39;35.50;85.40
8408;DHT22;4241;48.452;9.216;2023-08-24T13:08:06;35.70;79.90
8408;DHT22;4241;48.452;9.216;2023-08-24T13:10:33;35.60;79.40
8408;DHT22;4241;48.452;9.216;2023-08-24T13:13:01;35.70;81.20
8408;DHT22;4241;48.452;9.216;2023-08-24T13:15:30;35.70;76.50
8408;DHT22;4241;48.452;9.216;2023-08-24T13:17:56;35.60;77.70
8408;DHT22;4241;48.452;9.216;2023-08-24T13:20:23;35.70;77.60
8408;DHT22;4241;48.452;9.216;2023-08-24T13:22:51;35.80;76.30
8408;DHT22;4241;48.452;9.216;2023-08-24T13:25:18;35.80;71.70
8408;DHT22;4241;48.452;9.216;2023-08-24T13:27:44;35.70;69.50
8408;DHT22;4241;48.452;9.216;2023-08-24T13:30:11;35.60;70.00
8408;DHT22;4241;48.452;9.216;2023-08-24T13:32:40;35.60;76.00
8408;DHT22;4241;48.452;9.216;2023-08-24T13:35:07;35.60;75.30
8408;DHT22;4241;48.452;9.216;2023-08-24T13:37:34;35.40;74.40
8408;DHT22;4241;48.452;9.216;2023-08-24T13:40:01;35.30;76.00
8408;DHT22;4241;48.452;9.216;2023-08-24T13:42:29;35.30;71.50
8408;DHT22;4241;48.452;9.216;2023-08-24T13:44:56;35.30;72.90
8408;DHT22;4241;48.452;9.216;2023-08-24T13:47:22;35.40;73.70
8408;DHT22;4241;48.452;9.216;2023-08-24T13:49:51;35.40;75.00
8408;DHT22;4241;48.452;9.216;2023-08-24T13:52:17;35.40;79.00
8408;DHT22;4241;48.452;9.216;2023-08-24T13:54:44;35.40;73.10
8408;DHT22;4241;48.452;9.216;2023-08-24T13:57:11;35.40;73.80
8408;DHT22;4241;48.452;9.216;2023-08-24T13:59:38;35.30;71.40
8408;DHT22;4241;48.452;9.216;2023-08-24T14:02:06;35.30;71.30
8408;DHT22;4241;48.452;9.216;2023-08-24T14:04:33;35.30;70.90
8408;DHT22;4241;48.452;9.216;2023-08-24T14:07:01;35.20;71.90
8408;DHT22;4241;48.452;9.216;2023-08-24T14:09:28;35.30;71.20
8408;DHT22;4241;48.452;9.216;2023-08-24T14:11:56;35.30;72.80
8408;DHT22;4241;48.452;9.216;2023-08-24T14:14:22;35.20;68.90
8408;DHT22;4241;48.452;9.216;2023-08-24T14:16:54;35.10;72.30
8408;DHT22;4241;48.452;9.216;2023-08-24T14:19:21;35.00;72.70
8408;DHT22;4241;48.452;9.216;2023-08-24T14:21:48;34.90;73.50
8408;DHT22;4241;48.452;9.216;2023-08-24T14:24:16;34.90;78.20
8408;DHT22;4241;48.452;9.216;2023-08-24T14:26:43;34.70;79.40
8408;DHT22;4241;48.452;9.216;2023-08-24T14:29:12;34.70;80.00
8408;DHT22;4241;48.452;9.216;2023-08-24T14:31:39;34.80;77.80
8408;DHT22;4241;48.452;9.216;2023-08-24T14:34:06;34.90;78.90
8408;DHT22;4241;48.452;9.216;2023-08-24T14:36:33;34.80;80.00
8408;DHT22;4241;48.452;9.216;2023-08-24T14:38:59;34.80;80.80
8408;DHT22;4241;48.452;9.216;2023-08-24T14:41:27;34.80;74.30
8408;DHT22;4241;48.452;9.216;2023-08-24T14:43:54;34.70;71.50
8408;DHT22;4241;48.452;9.216;2023-08-24T14:46:21;34.60;72.20
8408;DHT22;4241;48.452;9.216;2023-08-24T14:48:48;34.60;74.50
8408;DHT22;4241;48.452;9.216;2023-08-24T14:51:15;34.60;75.90
8408;DHT22;4241;48.452;9.216;2023-08-24T14:53:41;34.60;76.80
8408;DHT22;4241;48.452;9.216;2023-08-24T14:56:08;34.60;75.00
8408;DHT22;4241;48.452;9.216;2023-08-24T14:58:37;34.60;76.30
8408;DHT22;4241;48.452;9.216;2023-08-24T15:01:07;34.70;75.60
8408;DHT22;4241;48.452;9.216;2023-08-24T15:03:33;34.70;73.40
8408;DHT22;4241;48.452;9.216;2023-08-24T15:06:02;34.70;76.20
8408;DHT22;4241;48.452;9.216;2023-08-24T15:08:30;34.60;77.90
8408;DHT22;4241;48.452;9.216;2023-08-24T15:10:58;34.60;86.20
8408;DHT22;4241;48.452;9.216;2023-08-24T15:13:26;34.50;91.10
8408;DHT22;4241;48.452;9.216;2023-08-24T15:15:55;34.40;90.80
8408;DHT22;4241;48.452;9.216;2023-08-24T15:18:22;34.30;92.20
8408;DHT22;4241;48.452;9.216;2023-08-24T15:20:50;34.30;97.00
8408;DHT22;4241;48.452;9.216;2023-08-24T15:23:21;34.30;99.00
8408;DHT22;4241;48.452;9.216;2023-08-24T15:25:48;34.20;97.50
8408;DHT22;4241;48.452;9.216;2023-08-24T15:28:15;34.10;95.30
8408;DHT22;4241;48.452;9.216;2023-08-24T15:30:42;34.00;93.90
8408;DHT22;4241;48.452;9.216;2023-08-24T15:33:10;33.90;93.80
8408;DHT22;4241;48.452;9.216;2023-08-24T15:35:39;33.80;91.40
8408;DHT22;4241;48.452;9.216;2023-08-24T15:38:05;33.60;92.00
8408;DHT22;4241;48.452;9.216;2023-08-24T15:40:33;33.40;92.70
8408;DHT22;4241;48.452;9.216;2023-08-24T15:43:00;33.20;93.80
8408;DHT22;4241;48.452;9.216;2023-08-24T15:45:27;33.00;95.80
8408;DHT22;4241;48.452;9.216;2023-08-24T15:47:55;32.80;96.60
8408;DHT22;4241;48.452;9.216;2023-08-24T15:50:23;32.70;99.60
8408;DHT22;4241;48.452;9.216;2023-08-24T15:52:50;32.50;99.90
8408;DHT22;4241;48.452;9.216;2023-08-24T15:55:17;32.20;99.90
8408;DHT22;4241;48.452;9.216;2023-08-24T15:57:44;32.10;99.90
8408;DHT22;4241;48.452;9.216;2023-08-24T16:00:12;31.80;99.90
8408;DHT22;4241;48.452;9.216;2023-08-24T16:02:40;31.60;99.90
8408;DHT22;4241;48.452;9.216;2023-08-24T16:05:07;31.50;99.90
8408;DHT22;4241;48.452;9.216;2023-08-24T16:07:35;31.40;99.90
8408;DHT22;4241;48.452;9.216;2023-08-24T16:10:02;31.30;99.90
8408;DHT22;4241;48.452;9.216;2023-08-24T16:12:30;31.30;99.90
8408;DHT22;4241;48.452;9.216;2023-08-24T16:14:57;31.30;99.90
8408;DHT22;4241;48.452;9.216;2023-08-24T16:17:24;31.30;99.90
8408;DHT22;4241;48.452;9.216;2023-08-24T16:19:51;31.10;99.90
8408;DHT22;4241;48.452;9.216;2023-08-24T16:22:18;31.10;99.90
8408;DHT22;4241;48.452;9.216;2023-08-24T16:24:46;31.20;99.90
8408;DHT22;4241;48.452;9.216;2023-08-24T16:27:13;31.00;99.90
8408;DHT22;4241;48.452;9.216;2023-08-24T16:29:40;30.80;99.90
8408;DHT22;4241;48.452;9.216;2023-08-24T16:32:07;30.60;99.90
8408;DHT22;4241;48.452;9.216;2023-08-24T16:34:34;30.30;99.90
8408;DHT22;4241;48.452;9.216;2023-08-24T16:37:00;30.10;99.90
8408;DHT22;4241;48.452;9.216;2023-08-24T16:39:29;30.00;99.90
8408;DHT22;4241;48.452;9.216;2023-08-24T16:41:57;29.90;99.90
8408;DHT22;4241;48.452;9.216;2023-08-24T16:44:24;29.70;99.90
8408;DHT22;4241;48.452;9.216;2023-08-24T16:46:51;29.60;99.90
8408;DHT22;4241;48.452;9.216;2023-08-24T16:49:18;29.50;99.90
8408;DHT22;4241;48.452;9.216;2023-08-24T16:51:44;29.20;99.90
8408;DHT22;4241;48.452;9.216;2023-08-24T16:54:11;29.10;99.90
8408;DHT22;4241;48.452;9.216;2023-08-24T16:56:39;28.90;99.90
8408;DHT22;4241;48.452;9.216;2023-08-24T16:59:08;28.80;99.90
8408;DHT22;4241;48.452;9.216;2023-08-24T17:01:34;28.80;99.90
8408;DHT22;4241;48.452;9.216;2023-08-24T17:04:01;28.60;99.90
8408;DHT22;4241;48.452;9.216;2023-08-24T17:06:28;28.60;99.90
8408;DHT22;4241;48.452;9.216;2023-08-24T17:08:55;28.40;99.90
8408;DHT22;4241;48.452;9.216;2023-08-24T17:11:22;28.30;99.90
8408;DHT22;4241;48.452;9.216;2023-08-24T17:13:50;28.30;99.90